Time;durP1;ratioP1;P1;durP2;ratioP2;P2;SDS_P1;SDS_P2;PMS_P1;PMS_P2;Temp;Humidity;BMP_temperature;BMP_pressure;BME280_temperature;BME280_humidity;BME280_pressure;Samples;Min_cycle;Max_cycle;Signal;HPM_P1;HPM_P2
2023/10/23 00:01:40;;;;;;;6.78;5.65;;;7.20;99.90;;;;;;5004825;28;20496;-79
2023/10/23 00:04:07;;;;;;;7.53;6.38;;;7.20;99.90;;;;;;5019755;28;20095;-73
2023/10/23 00:06:33;;;;;;;6.68;6.00;;;7.10;99.90;;;;;;5007070;28;20048;-73
2023/10/23 00:08:59;;;;;;;6.35;5.75;;;7.10;99.90;;;;;;5007311;28;20037;-78
2023/10/23 00:11:30;;;;;;;9.10;6.10;;;7.10;99.90;;;;;;5036929;28;20048;-78
2023/10/23 00:13:56;;;;;;;7.70;6.55;;;7.10;99.90;;;;;;5039440;28;20057;-78
2023/10/23 00:16:22;;;;;;;8.13;6.55;;;7.10;99.90;;;;;;5003321;28;20538;-78
2023/10/23 00:18:48;;;;;;;9.50;7.65;;;7.00;99.90;;;;;;5035493;28;20407;-78
2023/10/23 00:21:15;;;;;;;7.40;6.40;;;7.00;99.90;;;;;;5017898;28;20087;-72
2023/10/23 00:23:41;;;;;;;9.10;7.78;;;7.00;99.90;;;;;;5018157;28;20079;-73
2023/10/23 00:26:07;;;;;;;8.65;7.75;;;7.00;99.90;;;;;;5014261;28;20049;-72
2023/10/23 00:28:33;;;;;;;9.43;6.88;;;7.00;99.90;;;;;;5011713;28;20511;-72
2023/10/23 00:30:59;;;;;;;8.43;7.72;;;7.00;99.90;;;;;;4999130;28;20045;-73
2023/10/23 00:33:26;;;;;;;13.23;8.15;;;7.00;99.90;;;;;;5001438;28;20125;-72
2023/10/23 00:35:52;;;;;;;11.93;9.77;;;7.00;99.90;;;;;;5019127;28;20049;-73
2023/10/23 00:38:18;;;;;;;8.13;7.32;;;7.00;99.90;;;;;;5007202;28;20046;-72
2023/10/23 00:40:43;;;;;;;8.48;7.68;;;7.00;99.90;;;;;;5029696;28;20056;-72
2023/10/23 00:43:21;;;;;;;9.35;8.15;;;6.90;99.90;;;;;;5022944;28;20045;-73
2023/10/23 00:45:54;;;;;;;7.55;6.85;;;6.90;99.90;;;;;;5020019;28;20051;-73
2023/10/23 00:48:23;;;;;;;9.63;7.82;;;7.00;99.90;;;;;;5022392;28;20053;-73
2023/10/23 00:50:50;;;;;;;9.00;8.20;;;6.90;99.90;;;;;;4998518;28;20121;-73
2023/10/23 00:53:22;;;;;;;9.10;7.97;;;6.90;99.90;;;;;;5015203;28;20128;-73
2023/10/23 00:55:50;;;;;;;8.45;7.65;;;6.80;99.90;;;;;;5012087;28;20041;-72
2023/10/23 00:58:18;;;;;;;7.60;6.85;;;6.90;99.90;;;;;;5018797;28;20056;-73
2023/10/23 01:00:44;;;;;;;6.10;5.50;;;6.90;99.90;;;;;;5021042;28;20041;-72
2023/10/23 01:03:10;;;;;;;6.78;6.15;;;6.80;99.90;;;;;;5004452;28;20499;-73
2023/10/23 01:05:40;;;;;;;8.20;6.72;;;6.80;99.90;;;;;;5023252;28;20045;-72
2023/10/23 01:08:06;;;;;;;9.38;8.35;;;6.80;99.90;;;;;;5004735;28;20046;-72
2023/10/23 01:10:33;;;;;;;16.90;6.80;;;6.80;99.90;;;;;;5017122;28;20033;-73
2023/10/23 01:12:59;;;;;;;20.35;8.50;;;6.80;99.90;;;;;;4997053;28;20060;-72
2023/10/23 01:15:26;;;;;;;7.47;6.78;;;6.80;99.90;;;;;;5035910;28;20045;-73
2023/10/23 01:17:52;;;;;;;14.45;6.70;;;6.70;99.90;;;;;;5006614;28;20034;-73
2023/10/23 01:20:18;;;;;;;7.50;6.20;;;6.70;99.90;;;;;;5019302;28;20037;-74
2023/10/23 01:22:44;;;;;;;6.40;5.47;;;6.70;99.90;;;;;;5019552;28;20047;-74
2023/10/23 01:25:19;;;;;;;8.43;7.63;;;6.60;99.90;;;;;;5004272;28;20404;-74
2023/10/23 01:27:44;;;;;;;6.70;6.07;;;6.60;99.90;;;;;;5009667;28;20057;-73
2023/10/23 01:30:10;;;;;;;7.18;6.50;;;6.60;99.90;;;;;;5022688;28;20037;-74
2023/10/23 01:32:36;;;;;;;8.63;7.00;;;6.60;99.90;;;;;;5014661;28;20385;-73
2023/10/23 01:35:02;;;;;;;9.50;8.60;;;6.60;99.90;;;;;;5021847;28;20060;-73
2023/10/23 01:37:28;;;;;;;11.00;9.90;;;6.60;99.90;;;;;;5019448;28;20034;-73
2023/10/23 01:39:54;;;;;;;11.10;10.00;;;6.60;99.90;;;;;;5005070;28;20095;-73
2023/10/23 01:42:20;;;;;;;10.70;9.70;;;6.60;99.90;;;;;;5019925;28;20199;-73
2023/10/23 01:44:45;;;;;;;9.77;8.90;;;6.60;99.90;;;;;;5018198;28;20638;-73
2023/10/23 01:47:12;;;;;;;11.80;8.70;;;6.60;99.90;;;;;;5017417;28;20046;-73
2023/10/23 01:49:38;;;;;;;9.32;8.43;;;6.60;99.90;;;;;;5015960;28;20042;-73
2023/10/23 01:52:04;;;;;;;9.18;8.38;;;6.60;99.90;;;;;;5015435;28;20057;-73
2023/10/23 01:54:30;;;;;;;8.82;8.02;;;6.60;99.90;;;;;;5008357;28;20053;-73
2023/10/23 01:56:57;;;;;;;9.27;7.78;;;6.60;99.90;;;;;;4997099;28;20149;-73
2023/10/23 01:59:22;;;;;;;9.38;8.48;;;6.50;99.90;;;;;;5003037;28;20496;-73
2023/10/23 02:01:48;;;;;;;9.20;8.30;;;6.50;99.90;;;;;;5013397;28;20045;-73
2023/10/23 02:04:14;;;;;;;10.00;9.00;;;6.50;99.90;;;;;;5011992;28;20076;-74
2023/10/23 02:06:40;;;;;;;52.33;11.05;;;6.40;99.90;;;;;;5027621;28;20045;-73
2023/10/23 02:09:06;;;;;;;9.00;7.00;;;6.40;99.90;;;;;;5026167;28;20090;-73
2023/10/23 02:11:31;;;;;;;7.10;6.40;;;6.40;99.90;;;;;;5030579;28;20095;-73
2023/10/23 02:13:57;;;;;;;6.57;5.90;;;6.30;99.90;;;;;;5021188;28;20041;-73
2023/10/23 02:16:23;;;;;;;6.90;6.28;;;6.30;99.90;;;;;;5035181;28;20195;-73
2023/10/23 02:18:51;;;;;;;6.43;5.65;;;6.30;99.90;;;;;;5021329;28;20502;-73
2023/10/23 02:21:17;;;;;;;6.95;6.35;;;6.30;99.90;;;;;;5015361;28;20129;-73
2023/10/23 02:23:43;;;;;;;7.18;6.15;;;6.20;99.90;;;;;;5001346;28;21010;-73
2023/10/23 02:26:09;;;;;;;7.63;6.88;;;6.20;99.90;;;;;;5028767;28;20044;-73
2023/10/23 02:28:34;;;;;;;7.32;6.60;;;6.20;99.90;;;;;;5025128;28;20095;-74
2023/10/23 02:31:04;;;;;;;8.20;7.38;;;6.20;99.90;;;;;;5006150;28;20045;-73
2023/10/23 02:33:30;;;;;;;7.78;6.97;;;6.20;99.90;;;;;;4997738;28;20041;-73
2023/10/23 02:35:56;;;;;;;6.80;6.07;;;6.10;99.90;;;;;;5022122;28;20573;-73
2023/10/23 02:38:22;;;;;;;6.63;6.03;;;6.10;99.90;;;;;;5006646;28;20055;-73
2023/10/23 02:40:55;;;;;;;6.75;6.10;;;6.10;99.90;;;;;;5023908;28;20041;-73
2023/10/23 02:43:21;;;;;;;8.27;6.10;;;6.10;99.90;;;;;;5006906;28;20046;-73
2023/10/23 02:45:47;;;;;;;8.05;7.05;;;6.00;99.90;;;;;;5021770;28;20042;-79
2023/10/23 02:48:13;;;;;;;10.75;6.80;;;6.10;99.90;;;;;;5018233;28;20629;-79
2023/10/23 02:50:39;;;;;;;9.57;8.68;;;6.00;99.90;;;;;;4994354;28;20561;-79
2023/10/23 02:53:08;;;;;;;9.98;9.02;;;6.00;99.90;;;;;;5007608;28;20041;-79
2023/10/23 02:55:34;;;;;;;10.57;9.57;;;6.00;99.90;;;;;;5021457;28;20045;-79
2023/10/23 02:58:00;;;;;;;8.80;7.90;;;6.00;99.90;;;;;;5038584;28;20045;-79
2023/10/23 03:00:27;;;;;;;7.75;7.05;;;6.00;99.90;;;;;;5007769;28;20033;-79
2023/10/23 03:02:52;;;;;;;6.60;6.00;;;6.00;99.90;;;;;;5040437;28;20053;-79
2023/10/23 03:05:18;;;;;;;8.13;7.10;;;6.00;99.90;;;;;;5019943;28;20061;-79
2023/10/23 03:07:44;;;;;;;7.78;6.97;;;5.90;99.90;;;;;;5037642;28;20069;-79
2023/10/23 03:10:10;;;;;;;7.10;6.45;;;5.90;99.90;;;;;;5013079;28;20057;-79
2023/10/23 03:12:35;;;;;;;7.70;7.03;;;5.90;99.90;;;;;;5020738;28;20087;-79
2023/10/23 03:15:05;;;;;;;8.20;7.40;;;5.90;99.90;;;;;;5022814;28;20048;-79
2023/10/23 03:17:31;;;;;;;8.80;7.95;;;5.90;99.90;;;;;;5025033;28;20050;-79
2023/10/23 03:19:57;;;;;;;8.27;7.38;;;5.90;99.90;;;;;;5020818;28;20551;-79
2023/10/23 03:22:22;;;;;;;7.70;6.90;;;5.90;99.90;;;;;;5031890;28;20096;-79
2023/10/23 03:24:48;;;;;;;10.13;9.23;;;5.80;99.90;;;;;;5007729;28;20041;-80
2023/10/23 03:27:14;;;;;;;10.10;9.07;;;5.80;99.90;;;;;;5005049;28;20062;-79
2023/10/23 03:29:43;;;;;;;11.80;10.15;;;5.80;99.90;;;;;;5023182;28;20049;-79
2023/10/23 03:32:08;;;;;;;11.60;10.50;;;5.80;99.90;;;;;;5019520;28;20114;-79
2023/10/23 03:34:34;;;;;;;10.15;9.23;;;5.80;99.90;;;;;;5023057;28;20140;-79
2023/10/23 03:37:00;;;;;;;10.48;9.48;;;5.90;99.90;;;;;;5004160;28;20060;-79
2023/10/23 03:39:26;;;;;;;11.18;10.07;;;5.80;99.90;;;;;;5023568;28;20033;-79
2023/10/23 03:41:51;;;;;;;13.57;11.60;;;5.80;99.90;;;;;;5001639;28;20042;-79
2023/10/23 03:44:17;;;;;;;13.48;11.02;;;5.80;99.90;;;;;;5022931;28;20508;-79
2023/10/23 03:46:43;;;;;;;12.10;8.77;;;5.80;99.90;;;;;;5016313;28;20133;-79
2023/10/23 03:49:09;;;;;;;10.02;9.13;;;5.80;99.90;;;;;;5018220;28;20503;-78
2023/10/23 03:51:35;;;;;;;11.57;10.52;;;5.70;99.90;;;;;;5007177;28;20232;-72
2023/10/23 03:54:01;;;;;;;13.15;11.30;;;5.70;99.90;;;;;;5021803;28;20046;-72
2023/10/23 03:56:26;;;;;;;10.95;9.95;;;5.70;99.90;;;;;;5023406;28;20044;-79
2023/10/23 03:58:52;;;;;;;10.38;9.50;;;5.70;99.90;;;;;;5021176;28;20164;-78
2023/10/23 04:01:18;;;;;;;14.00;12.70;;;5.70;99.90;;;;;;5016196;28;20049;-79
2023/10/23 04:03:44;;;;;;;11.82;10.73;;;5.60;99.90;;;;;;5018910;28;20037;-78
2023/10/23 04:06:10;;;;;;;11.55;10.45;;;5.60;99.90;;;;;;5011405;28;20045;-79
2023/10/23 04:08:35;;;;;;;13.55;12.45;;;5.70;99.90;;;;;;5024074;28;20078;-79
2023/10/23 04:11:03;;;;;;;13.18;11.90;;;5.60;99.90;;;;;;5012040;28;20492;-79
2023/10/23 04:13:29;;;;;;;13.02;11.82;;;5.60;99.90;;;;;;5017282;28;20173;-79
2023/10/23 04:15:59;;;;;;;15.27;12.40;;;5.70;99.90;;;;;;5006475;28;20121;-79
2023/10/23 04:18:25;;;;;;;13.13;11.55;;;5.60;99.90;;;;;;5020979;28;20737;-79
2023/10/23 04:21:10;;;;;;;13.23;12.00;;;5.70;99.90;;;;;;5018295;28;20576;-79
2023/10/23 04:23:37;;;;;;;13.55;12.35;;;5.60;99.90;;;;;;5000989;28;20049;-79
2023/10/23 04:26:04;;;;;;;13.77;12.48;;;5.70;99.90;;;;;;4997776;28;20448;-79
2023/10/23 04:28:31;;;;;;;15.43;14.05;;;5.70;99.90;;;;;;5022282;28;20373;-79
2023/10/23 04:30:57;;;;;;;16.52;15.00;;;5.70;99.90;;;;;;5009822;28;20046;-79
2023/10/23 04:33:23;;;;;;;16.23;14.70;;;5.70;99.90;;;;;;5022196;28;20508;-79
2023/10/23 04:35:50;;;;;;;17.55;15.95;;;5.70;99.90;;;;;;5004713;28;20049;-80
2023/10/23 04:38:16;;;;;;;15.45;14.05;;;5.70;99.90;;;;;;5018047;28;20046;-81
2023/10/23 04:40:45;;;;;;;15.13;13.63;;;5.70;99.90;;;;;;5007691;28;20050;-80
2023/10/23 04:43:11;;;;;;;14.73;13.40;;;5.70;99.90;;;;;;5019720;28;20084;-81
2023/10/23 04:45:37;;;;;;;13.43;12.25;;;5.70;99.90;;;;;;5012345;28;20056;-80
2023/10/23 04:48:07;;;;;;;13.93;12.63;;;5.70;99.90;;;;;;5004898;28;20108;-80
2023/10/23 04:50:34;;;;;;;13.35;12.15;;;5.70;99.90;;;;;;5010804;28;20061;-80
2023/10/23 04:53:00;;;;;;;12.20;11.10;;;5.70;99.90;;;;;;5005348;28;20052;-80
2023/10/23 04:55:30;;;;;;;12.30;11.10;;;5.70;99.90;;;;;;5006440;28;20042;-80
2023/10/23 04:57:56;;;;;;;13.05;11.82;;;5.70;99.90;;;;;;5016543;28;20146;-74
2023/10/23 05:00:22;;;;;;;25.15;13.88;;;5.60;99.90;;;;;;5007585;28;20528;-73
2023/10/23 05:02:48;;;;;;;14.68;13.30;;;5.60;99.90;;;;;;5017412;28;20046;-73
2023/10/23 05:05:14;;;;;;;13.77;12.48;;;5.60;99.90;;;;;;5006528;28;20038;-73
2023/10/23 05:07:39;;;;;;;15.90;14.20;;;5.60;99.90;;;;;;5005438;28;20261;-73
2023/10/23 05:10:09;;;;;;;14.32;13.13;;;5.60;99.90;;;;;;5024399;28;20463;-73
2023/10/23 05:12:38;;;;;;;14.85;13.45;;;5.60;99.90;;;;;;5011996;28;20045;-73
2023/10/23 05:15:05;;;;;;;14.48;13.07;;;5.60;99.90;;;;;;5021079;28;20459;-73
2023/10/23 05:17:31;;;;;;;11.40;10.40;;;5.60;99.90;;;;;;5033145;28;20058;-73
2023/10/23 05:19:57;;;;;;;14.13;12.65;;;5.50;99.90;;;;;;5018482;28;20099;-73
2023/10/23 05:22:23;;;;;;;11.20;10.20;;;5.50;99.90;;;;;;5018909;28;20077;-73
2023/10/23 05:24:49;;;;;;;10.90;9.90;;;5.50;99.90;;;;;;5018522;28;21003;-73
2023/10/23 05:27:15;;;;;;;10.00;9.20;;;5.40;99.90;;;;;;5006394;28;20104;-80
2023/10/23 05:29:41;;;;;;;11.75;10.75;;;5.40;99.90;;;;;;5019727;28;20049;-80
2023/10/23 05:32:07;;;;;;;17.83;15.98;;;5.40;99.90;;;;;;5005388;28;20041;-80
2023/10/23 05:34:36;;;;;;;14.40;13.10;;;5.30;99.90;;;;;;5015411;28;20045;-80
2023/10/23 05:37:02;;;;;;;16.10;14.40;;;5.30;99.90;;;;;;4995290;28;20041;-79
2023/10/23 05:39:28;;;;;;;15.07;13.00;;;5.30;99.90;;;;;;5019859;28;20041;-80
2023/10/23 05:41:54;;;;;;;12.93;11.75;;;5.30;99.90;;;;;;4996346;28;20048;-80
2023/10/23 05:44:20;;;;;;;12.90;11.65;;;5.20;99.90;;;;;;5023413;28;20041;-80
2023/10/23 05:46:45;;;;;;;13.23;11.90;;;5.30;99.90;;;;;;5018695;28;20030;-80
2023/10/23 05:49:11;;;;;;;15.13;13.82;;;5.20;99.90;;;;;;5008210;28;20033;-79
2023/10/23 05:51:37;;;;;;;16.88;15.48;;;5.30;99.90;;;;;;5022562;28;20042;-80
2023/10/23 05:54:06;;;;;;;19.60;17.45;;;5.30;99.90;;;;;;5014722;28;20096;-80
2023/10/23 05:56:32;;;;;;;20.85;13.38;;;5.30;99.90;;;;;;4996163;28;20045;-80
2023/10/23 05:58:57;;;;;;;13.63;12.30;;;5.30;99.90;;;;;;5019688;28;20124;-73
2023/10/23 06:01:23;;;;;;;11.35;10.38;;;5.30;99.90;;;;;;5025791;28;20111;-73
2023/10/23 06:03:49;;;;;;;13.02;11.73;;;5.30;99.90;;;;;;5012328;28;20494;-73
2023/10/23 06:06:15;;;;;;;11.73;10.63;;;5.30;99.90;;;;;;5030761;28;20051;-73
2023/10/23 06:08:41;;;;;;;11.90;10.85;;;5.20;99.90;;;;;;5006557;28;20400;-74
2023/10/23 06:11:08;;;;;;;11.23;10.07;;;5.20;99.90;;;;;;5014684;28;20046;-73
2023/10/23 06:13:34;;;;;;;11.18;10.27;;;5.20;99.90;;;;;;5016821;28;20048;-73
2023/10/23 06:16:10;;;;;;;13.73;12.30;;;5.10;99.90;;;;;;5020208;28;20120;-73
2023/10/23 06:18:37;;;;;;;11.60;10.50;;;5.00;99.90;;;;;;5009826;28;20558;-73
2023/10/23 06:21:05;;;;;;;12.65;11.35;;;5.10;99.90;;;;;;5021317;28;20050;-72
2023/10/23 06:23:39;;;;;;;11.90;10.77;;;5.00;99.90;;;;;;4999563;28;20479;-72
2023/10/23 06:26:09;;;;;;;11.93;10.80;;;5.10;99.90;;;;;;5020191;28;20042;-72
2023/10/23 06:28:35;;;;;;;12.55;11.27;;;5.10;99.90;;;;;;4994587;28;20088;-72
2023/10/23 06:31:09;;;;;;;11.80;10.80;;;5.10;99.90;;;;;;5014407;28;20064;-72
2023/10/23 06:33:36;;;;;;;10.93;10.02;;;5.10;99.90;;;;;;5016893;28;20046;-72
2023/10/23 06:36:07;;;;;;;12.75;11.55;;;5.10;99.90;;;;;;5000744;28;20503;-72
2023/10/23 06:38:33;;;;;;;15.32;13.93;;;5.20;99.90;;;;;;5038020;28;20508;-72
2023/10/23 06:41:06;;;;;;;14.43;13.02;;;5.20;99.90;;;;;;5014451;28;20049;-73
2023/10/23 06:43:34;;;;;;;14.70;13.50;;;5.20;99.90;;;;;;5028176;28;20408;-72
2023/10/23 06:46:00;;;;;;;13.85;12.52;;;5.20;99.90;;;;;;5017748;28;20034;-73
2023/10/23 06:48:25;;;;;;;18.40;16.80;;;5.20;99.90;;;;;;5008818;28;20455;-73
2023/10/23 06:50:51;;;;;;;15.90;14.40;;;5.20;99.90;;;;;;5023871;28;20491;-72
2023/10/23 06:53:17;;;;;;;17.90;16.20;;;5.20;99.90;;;;;;4994943;28;20042;-73
2023/10/23 06:55:51;;;;;;;14.60;13.10;;;5.30;99.90;;;;;;5008300;28;20042;-73
2023/10/23 06:58:19;;;;;;;14.77;13.57;;;5.30;99.90;;;;;;5017965;28;20046;-73
2023/10/23 07:00:48;;;;;;;28.52;13.73;;;5.20;99.90;;;;;;5001388;28;20045;-72
2023/10/23 07:03:14;;;;;;;14.07;12.57;;;5.20;99.90;;;;;;5005510;28;20385;-73
2023/10/23 07:05:41;;;;;;;17.00;15.48;;;5.30;99.90;;;;;;5010140;28;20332;-72
2023/10/23 07:08:06;;;;;;;14.82;13.52;;;5.30;99.90;;;;;;5004119;28;20136;-73
2023/10/23 07:10:33;;;;;;;17.25;15.48;;;5.30;99.90;;;;;;5027512;28;20136;-72
2023/10/23 07:12:59;;;;;;;18.27;16.40;;;5.30;99.90;;;;;;5000399;28;20050;-73
2023/10/23 07:15:25;;;;;;;16.58;14.85;;;5.20;99.90;;;;;;5005662;28;20049;-73
2023/10/23 07:17:50;;;;;;;15.02;13.75;;;5.30;99.90;;;;;;4999426;28;20417;-72
2023/10/23 07:20:17;;;;;;;18.50;16.80;;;5.30;99.90;;;;;;5004356;28;20428;-73
2023/10/23 07:22:45;;;;;;;17.38;15.68;;;5.30;99.90;;;;;;5024303;28;20422;-73
2023/10/23 07:25:11;;;;;;;18.75;16.95;;;5.30;99.90;;;;;;5005311;28;20034;-73
2023/10/23 07:27:39;;;;;;;24.90;21.77;;;5.40;99.90;;;;;;5023971;28;20048;-73
2023/10/23 07:30:06;;;;;;;18.17;16.38;;;5.40;99.90;;;;;;5005798;28;20176;-73
2023/10/23 07:32:34;;;;;;;27.13;22.00;;;5.40;99.90;;;;;;5020053;28;20407;-73
2023/10/23 07:35:00;;;;;;;16.90;15.48;;;5.40;99.90;;;;;;5014567;28;20541;-73
2023/10/23 07:37:27;;;;;;;15.80;12.98;;;5.50;99.90;;;;;;5011877;28;20046;-73
2023/10/23 07:39:53;;;;;;;16.27;14.77;;;5.50;99.90;;;;;;5020081;28;20057;-73
2023/10/23 07:42:19;;;;;;;18.00;16.30;;;5.60;99.90;;;;;;5009353;28;20500;-72
2023/10/23 07:44:45;;;;;;;18.95;17.13;;;5.60;99.90;;;;;;5023432;28;20045;-72
2023/10/23 07:47:11;;;;;;;19.65;17.83;;;5.60;99.90;;;;;;5025497;28;20048;-72
2023/10/23 07:49:37;;;;;;;24.13;21.73;;;5.70;99.90;;;;;;5020289;28;20419;-74
2023/10/23 07:52:03;;;;;;;23.20;20.90;;;5.80;99.90;;;;;;5009952;28;20041;-74
2023/10/23 07:54:31;;;;;;;33.10;27.05;;;6.00;99.90;;;;;;5023778;28;20041;-74
2023/10/23 07:56:57;;;;;;;30.13;26.92;;;6.10;99.90;;;;;;5009236;28;20114;-74
2023/10/23 07:59:24;;;;;;;26.88;24.02;;;6.20;99.90;;;;;;5020790;28;20085;-74
2023/10/23 08:01:50;;;;;;;29.42;26.33;;;6.30;99.90;;;;;;5001320;28;20616;-74
2023/10/23 08:04:16;;;;;;;32.70;28.70;;;6.40;99.90;;;;;;5016951;28;20041;-75
2023/10/23 08:06:42;;;;;;;29.63;26.30;;;6.50;99.90;;;;;;5024741;28;20045;-74
2023/10/23 08:09:08;;;;;;;33.65;29.70;;;6.60;99.90;;;;;;5018432;28;20052;-72
2023/10/23 08:11:37;;;;;;;36.47;32.42;;;6.70;99.90;;;;;;5024330;28;20565;-73
2023/10/23 08:14:02;;;;;;;35.90;31.95;;;6.90;99.90;;;;;;5022346;28;20037;-73
2023/10/23 08:16:28;;;;;;;35.95;32.22;;;7.20;99.90;;;;;;5023109;28;20098;-73
2023/10/23 08:18:55;;;;;;;36.33;32.53;;;7.40;99.90;;;;;;5016655;28;20116;-73
2023/10/23 08:21:22;;;;;;;33.67;30.17;;;7.70;99.90;;;;;;5019466;28;20131;-73
2023/10/23 08:23:52;;;;;;;35.42;31.85;;;7.90;99.90;;;;;;5037405;28;20420;-73
2023/10/23 08:26:18;;;;;;;32.90;29.60;;;8.10;99.90;;;;;;5021740;28;20049;-72
2023/10/23 08:28:44;;;;;;;36.38;32.58;;;8.20;99.90;;;;;;5002906;28;20122;-73
2023/10/23 08:31:10;;;;;;;37.63;33.83;;;8.40;99.90;;;;;;5006265;28;20160;-73
2023/10/23 08:33:36;;;;;;;31.65;28.45;;;8.50;99.90;;;;;;5021122;28;20104;-73
2023/10/23 08:36:03;;;;;;;33.88;30.48;;;8.60;99.90;;;;;;5020391;28;20519;-73
2023/10/23 08:38:28;;;;;;;35.22;30.73;;;8.70;99.90;;;;;;5017356;28;20704;-73
2023/10/23 08:40:55;;;;;;;31.13;27.83;;;8.90;99.90;;;;;;4999361;28;20096;-73
2023/10/23 08:43:22;;;;;;;27.98;25.15;;;8.90;99.90;;;;;;5006551;28;20046;-73
2023/10/23 08:45:50;;;;;;;33.53;30.02;;;9.10;99.90;;;;;;5017555;28;20049;-73
2023/10/23 08:48:15;;;;;;;29.15;26.17;;;9.20;99.90;;;;;;5024043;28;20049;-73
2023/10/23 08:50:43;;;;;;;29.45;26.55;;;9.20;99.90;;;;;;5016868;28;20381;-74
2023/10/23 08:53:11;;;;;;;27.00;24.20;;;9.30;99.90;;;;;;5006438;28;20538;-73
2023/10/23 08:55:37;;;;;;;29.10;26.17;;;9.40;99.90;;;;;;5005658;28;20053;-73
2023/10/23 08:58:05;;;;;;;31.52;28.33;;;9.60;99.90;;;;;;5006147;28;20083;-73
2023/10/23 09:00:31;;;;;;;26.42;23.85;;;9.70;99.90;;;;;;5022740;28;20462;-73
2023/10/23 09:03:00;;;;;;;26.50;24.00;;;9.80;99.90;;;;;;5020502;28;20068;-74
2023/10/23 09:05:26;;;;;;;26.73;24.13;;;9.80;99.90;;;;;;5021417;28;20037;-73
2023/10/23 09:07:52;;;;;;;27.88;25.17;;;9.90;99.90;;;;;;5006299;28;20045;-73
2023/10/23 09:10:21;;;;;;;25.27;22.88;;;10.00;99.90;;;;;;5004109;28;20045;-73
2023/10/23 09:12:53;;;;;;;22.52;20.40;;;10.10;99.90;;;;;;5014904;28;20571;-73
2023/10/23 09:15:24;;;;;;;26.15;23.73;;;10.10;99.90;;;;;;5019818;28;20045;-73
2023/10/23 09:17:50;;;;;;;23.63;21.42;;;10.20;99.90;;;;;;5020480;28;20045;-73
2023/10/23 09:20:16;;;;;;;22.52;20.38;;;10.20;99.90;;;;;;5020438;28;20072;-73
2023/10/23 09:22:47;;;;;;;23.70;21.30;;;10.20;99.90;;;;;;5020574;28;20053;-73
2023/10/23 09:25:17;;;;;;;21.13;19.13;;;10.20;99.90;;;;;;5013937;28;20508;-73
2023/10/23 09:27:44;;;;;;;20.45;18.42;;;10.30;99.90;;;;;;5020579;28;20053;-73
2023/10/23 09:30:10;;;;;;;21.35;19.42;;;10.40;99.90;;;;;;4998648;28;20106;-73
2023/10/23 09:32:37;;;;;;;19.15;17.40;;;10.40;99.90;;;;;;5004872;28;20136;-73
2023/10/23 09:35:10;;;;;;;18.90;17.15;;;10.40;99.90;;;;;;4992930;28;20037;-73
2023/10/23 09:37:39;;;;;;;18.80;17.13;;;10.50;99.90;;;;;;5039586;28;20147;-73
2023/10/23 09:40:09;;;;;;;19.35;17.55;;;10.60;99.90;;;;;;5018834;28;20045;-73
2023/10/23 09:42:35;;;;;;;;;;;10.60;99.90;;;;;;5014863;28;20136;-73
2023/10/23 09:45:04;;;;;;;17.95;16.17;;;10.60;99.90;;;;;;5005328;28;19921;-73
2023/10/23 09:47:31;;;;;;;17.25;15.65;;;10.60;99.90;;;;;;4999015;28;20053;-74
2023/10/23 09:49:58;;;;;;;16.05;14.55;;;10.70;99.90;;;;;;5004450;28;20132;-74
2023/10/23 09:52:25;;;;;;;17.48;15.88;;;10.80;99.90;;;;;;5009736;28;20203;-74
2023/10/23 09:54:58;;;;;;;15.57;13.98;;;10.80;99.90;;;;;;5015478;28;20084;-74
2023/10/23 09:57:37;;;;;;;16.73;15.13;;;10.90;99.90;;;;;;5016195;28;20094;-74
2023/10/23 10:00:12;;;;;;;16.13;14.63;;;11.00;99.90;;;;;;5017029;28;20052;-74
2023/10/23 10:02:40;;;;;;;14.95;13.65;;;11.00;99.90;;;;;;5015358;28;20046;-74
2023/10/23 10:05:09;;;;;;;15.57;14.15;;;11.10;99.90;;;;;;5022177;28;20542;-74
2023/10/23 10:07:38;;;;;;;14.70;13.38;;;11.10;99.90;;;;;;5016139;28;20057;-82
2023/10/23 10:10:05;;;;;;;15.65;14.18;;;11.20;99.90;;;;;;5022840;28;20088;-82
2023/10/23 10:12:34;;;;;;;14.25;12.85;;;11.20;99.90;;;;;;5019445;28;20057;-82
2023/10/23 10:15:01;;;;;;;14.15;12.75;;;11.20;99.90;;;;;;5019722;28;20045;-83
2023/10/23 10:17:28;;;;;;;13.35;12.13;;;11.30;99.90;;;;;;5012348;28;20049;-74
2023/10/23 10:19:56;;;;;;;12.68;11.48;;;11.30;99.90;;;;;;5003063;28;20116;-73
2023/10/23 10:22:33;;;;;;;12.40;11.07;;;11.40;99.90;;;;;;5004944;28;20050;-74
2023/10/23 10:24:59;;;;;;;14.60;13.10;;;11.50;99.90;;;;;;5020541;28;20089;-73
2023/10/23 10:27:26;;;;;;;14.38;13.00;;;11.60;99.90;;;;;;5007786;28;20076;-73
2023/10/23 10:29:51;;;;;;;13.98;12.68;;;11.60;99.90;;;;;;5022561;28;20033;-74
2023/10/23 10:32:17;;;;;;;14.75;13.25;;;11.70;99.90;;;;;;5032635;28;20080;-74
2023/10/23 10:34:46;;;;;;;16.08;14.68;;;11.60;99.90;;;;;;5006793;28;20045;-74
2023/10/23 10:37:12;;;;;;;16.77;15.20;;;11.70;99.90;;;;;;5012603;28;20046;-74
2023/10/23 10:39:50;;;;;;;16.67;15.13;;;11.70;99.90;;;;;;5008686;28;20041;-74
2023/10/23 10:42:17;;;;;;;17.40;15.80;;;11.70;99.90;;;;;;5001675;28;20091;-74
2023/10/23 10:44:56;;;;;;;18.65;16.70;;;11.70;99.90;;;;;;5024447;28;20131;-74
2023/10/23 10:47:43;;;;;;;20.07;18.00;;;11.80;99.90;;;;;;5016082;28;20223;-73
2023/10/23 10:50:10;;;;;;;17.38;15.85;;;11.80;99.90;;;;;;5001887;28;20042;-74
2023/10/23 10:52:37;;;;;;;20.35;18.58;;;11.70;99.90;;;;;;5021252;28;20045;-74
2023/10/23 10:55:11;;;;;;;18.98;17.35;;;11.70;99.90;;;;;;5020793;28;20601;-74
2023/10/23 10:57:40;;;;;;;21.67;19.67;;;11.60;99.90;;;;;;5024044;28;20115;-74
2023/10/23 11:00:09;;;;;;;23.13;21.02;;;11.50;99.90;;;;;;5021723;28;20475;-74
2023/10/23 11:02:36;;;;;;;20.33;18.42;;;11.40;99.90;;;;;;5014211;28;20074;-74
2023/10/23 11:05:09;;;;;;;22.65;20.45;;;11.30;99.90;;;;;;5020118;28;20049;-74
2023/10/23 11:07:35;;;;;;;26.00;23.50;;;11.30;99.90;;;;;;5017191;28;20092;-74
2023/10/23 11:10:01;;;;;;;28.42;25.60;;;11.30;99.90;;;;;;5009796;28;20041;-75
2023/10/23 11:12:27;;;;;;;28.15;25.33;;;11.20;99.90;;;;;;5005072;28;20526;-74
2023/10/23 11:14:52;;;;;;;29.05;26.10;;;11.20;99.90;;;;;;5021703;28;20419;-74
2023/10/23 11:17:18;;;;;;;29.33;26.23;;;11.20;99.90;;;;;;5005136;28;20049;-74
2023/10/23 11:19:44;;;;;;;26.08;23.55;;;11.10;99.90;;;;;;5006802;28;20041;-74
2023/10/23 11:22:15;;;;;;;27.27;24.42;;;11.10;99.90;;;;;;5008527;28;20040;-74
2023/10/23 11:24:41;;;;;;;23.80;21.52;;;11.00;99.90;;;;;;5000752;28;20068;-74
2023/10/23 11:27:08;;;;;;;26.45;23.75;;;11.00;99.90;;;;;;5008826;28;20041;-73
2023/10/23 11:29:45;;;;;;;26.67;23.98;;;11.00;99.90;;;;;;5018149;28;20037;-74
2023/10/23 11:32:12;;;;;;;23.55;21.08;;;10.90;99.90;;;;;;5008403;28;20061;-74
2023/10/23 11:34:38;;;;;;;27.45;24.75;;;10.90;99.90;;;;;;5013347;28;20041;-74
2023/10/23 11:37:05;;;;;;;25.80;23.15;;;10.90;99.90;;;;;;5004682;28;20041;-74
2023/10/23 11:39:32;;;;;;;26.60;23.92;;;10.90;99.90;;;;;;5023025;28;20053;-82
2023/10/23 11:41:59;;;;;;;25.92;23.38;;;10.80;99.90;;;;;;5006274;28;20704;-81
2023/10/23 11:44:26;;;;;;;26.20;22.67;;;10.80;99.90;;;;;;5024099;28;20128;-82
2023/10/23 11:46:54;;;;;;;25.83;23.27;;;10.70;99.90;;;;;;5007274;28;20052;-82
2023/10/23 11:49:20;;;;;;;27.55;24.75;;;10.70;99.90;;;;;;5022481;28;20049;-81
2023/10/23 11:51:47;;;;;;;28.33;25.33;;;10.70;99.90;;;;;;5005836;28;20144;-81
2023/10/23 11:54:12;;;;;;;28.80;25.10;;;10.70;99.90;;;;;;5017136;28;20092;-81
2023/10/23 11:56:38;;;;;;;28.95;25.95;;;10.70;99.90;;;;;;5022640;28;20081;-81
2023/10/23 11:59:04;;;;;;;26.85;24.05;;;10.70;99.90;;;;;;5019075;28;20045;-81
2023/10/23 12:01:30;;;;;;;29.23;24.90;;;10.70;99.90;;;;;;5002860;28;20041;-81
2023/10/23 12:03:56;;;;;;;26.98;23.77;;;10.70;99.90;;;;;;5018912;28;20045;-81
2023/10/23 12:06:25;;;;;;;26.60;23.90;;;10.70;99.90;;;;;;5002385;28;20088;-80
2023/10/23 12:08:51;;;;;;;25.55;22.90;;;10.70;99.90;;;;;;5005853;28;20046;-81
2023/10/23 12:11:17;;;;;;;28.85;25.85;;;10.70;99.90;;;;;;5018564;28;20102;-82
2023/10/23 12:13:43;;;;;;;29.45;26.25;;;10.80;99.90;;;;;;5020711;28;20044;-82
2023/10/23 12:16:09;;;;;;;29.88;26.52;;;10.80;99.90;;;;;;5020511;28;20037;-81
2023/10/23 12:18:38;;;;;;;26.80;23.90;;;10.80;99.90;;;;;;5018756;28;20054;-82
2023/10/23 12:21:07;;;;;;;27.08;24.27;;;10.90;99.90;;;;;;5017611;28;20088;-81
2023/10/23 12:23:36;;;;;;;26.55;23.85;;;10.90;99.90;;;;;;5018702;28;20048;-81
2023/10/23 12:26:01;;;;;;;29.02;25.92;;;10.90;99.90;;;;;;5004603;28;20072;-74
2023/10/23 12:28:27;;;;;;;27.95;24.98;;;10.90;99.90;;;;;;5003560;28;20041;-73
2023/10/23 12:30:53;;;;;;;28.65;25.65;;;10.90;99.90;;;;;;5019640;28;20071;-73
2023/10/23 12:33:19;;;;;;;29.05;26.02;;;11.00;99.90;;;;;;5035365;28;20049;-73
2023/10/23 12:35:45;;;;;;;29.40;26.23;;;11.00;99.90;;;;;;5004127;28;20457;-73
2023/10/23 12:38:11;;;;;;;31.08;24.67;;;10.90;99.90;;;;;;5020757;28;20552;-74
2023/10/23 12:40:42;;;;;;;29.90;26.55;;;11.00;99.90;;;;;;5017907;28;20041;-74